createdAt,value
2022-11-14T00:00:34.759Z,57.42
2022-11-14T00:03:05.630Z,52.08
2022-11-14T00:05:34.234Z,47.67
2022-11-14T00:08:02.005Z,56.47
2022-11-14T00:10:29.690Z,59.13
2022-11-14T00:12:57.428Z,57.47
2022-11-14T00:15:26.518Z,56.72
2022-11-14T00:17:54.222Z,56.10
2022-11-14T00:20:21.965Z,49.97
2022-11-14T00:22:49.754Z,46.58
2022-11-14T00:25:17.582Z,49.88
2022-11-14T00:27:45.300Z,57.08
2022-11-14T00:30:13.255Z,51.22
2022-11-14T00:32:42.325Z,55.25
2022-11-14T00:35:10.621Z,54.25
2022-11-14T00:37:38.356Z,47.30
2022-11-14T00:40:06.939Z,49.83
2022-11-14T00:42:35.762Z,56.90
2022-11-14T00:45:03.629Z,52.72
2022-11-14T00:47:31.362Z,59.22
2022-11-14T00:50:00.432Z,62.40
2022-11-14T00:52:28.134Z,59.92
2022-11-14T00:54:55.836Z,59.92
2022-11-14T00:57:23.543Z,54.90
2022-11-14T00:59:51.330Z,66.13
2022-11-14T01:02:19.148Z,61.92
2022-11-14T01:04:46.851Z,58.08
2022-11-14T01:07:15.922Z,60.83
2022-11-14T01:09:43.619Z,55.67
2022-11-14T01:12:11.341Z,53.55
2022-11-14T01:14:40.671Z,57.55
2022-11-14T01:17:08.429Z,52.50
2022-11-14T01:19:36.278Z,58.90
2022-11-14T01:22:06.506Z,57.08
2022-11-14T01:24:36.269Z,61.97
2022-11-14T01:27:04.178Z,63.22
2022-11-14T01:29:31.910Z,57.60
2022-11-14T01:31:59.766Z,61.60
2022-11-14T01:34:29.368Z,67.38
2022-11-14T01:36:57.078Z,67.28
2022-11-14T01:39:24.938Z,67.53
2022-11-14T01:41:54.079Z,66.80
2022-11-14T01:44:42.305Z,66.88
2022-11-14T01:47:12.358Z,56.72
2022-11-14T01:49:43.310Z,70.82
2022-11-14T01:52:15.865Z,61.38
2022-11-14T01:54:49.142Z,68.88
2022-11-14T01:57:22.478Z,63.28
2022-11-14T01:59:54.031Z,64.50
2022-11-14T02:02:23.267Z,65.45
2022-11-14T02:04:56.394Z,59.90
2022-11-14T02:07:26.515Z,67.70
2022-11-14T02:09:54.890Z,60.30
2022-11-14T02:12:24.595Z,70.07
2022-11-14T02:14:56.642Z,57.05
2022-11-14T02:17:30.391Z,70.07
2022-11-14T02:20:07.226Z,66.32
2022-11-14T02:22:35.005Z,53.70
2022-11-14T02:25:03.007Z,56.38
2022-11-14T02:27:31.326Z,56.90
2022-11-14T02:30:05.863Z,58.70
2022-11-14T02:32:56.899Z,56.08
2022-11-14T02:35:22.671Z,57.17
2022-11-14T02:37:50.415Z,54.05
2022-11-14T02:40:18.465Z,57.70
2022-11-14T02:42:46.167Z,50.55
2022-11-14T02:45:14.245Z,53.67
2022-11-14T02:47:42.018Z,44.92
2022-11-14T02:50:10.387Z,48.15
2022-11-14T02:52:39.731Z,46.95
2022-11-14T02:55:08.297Z,44.45
2022-11-14T02:57:36.012Z,46.75
2022-11-14T03:00:05.439Z,38.50
2022-11-14T03:02:35.410Z,39.50
2022-11-14T03:05:03.166Z,43.92
2022-11-14T03:07:30.984Z,34.67
2022-11-14T03:10:00.071Z,38.20
2022-11-14T03:12:27.894Z,36.80
2022-11-14T03:14:55.595Z,40.15
2022-11-14T03:17:24.500Z,36.58
2022-11-14T03:19:52.182Z,36.08
2022-11-14T03:22:19.869Z,34.50
2022-11-14T03:24:47.572Z,37.88
2022-11-14T03:27:16.612Z,32.03
2022-11-14T03:29:44.359Z,31.65
2022-11-14T03:32:12.073Z,32.38
2022-11-14T03:34:39.797Z,31.42
2022-11-14T03:37:07.488Z,33.20
2022-11-14T03:39:35.226Z,33.53
2022-11-14T03:42:02.963Z,33.28
2022-11-14T03:44:32.047Z,38.72
2022-11-14T03:46:59.771Z,29.60
2022-11-14T03:49:27.490Z,34.20
2022-11-14T03:51:55.206Z,35.22
2022-11-14T03:54:23.009Z,29.52
2022-11-14T03:56:52.468Z,28.35
2022-11-14T03:59:20.191Z,25.98
2022-11-14T04:01:49.334Z,33.30
2022-11-14T04:04:17.168Z,27.67
2022-11-14T04:06:45.937Z,31.95
2022-11-14T04:09:13.885Z,29.77
2022-11-14T04:11:41.584Z,31.73
2022-11-14T04:14:10.315Z,26.27
2022-11-14T04:16:38.028Z,25.40
2022-11-14T04:19:07.362Z,30.17
2022-11-14T04:21:35.097Z,26.55
2022-11-14T04:24:07.072Z,28.10
2022-11-14T04:26:37.700Z,31.95
2022-11-14T04:29:07.443Z,24.92
2022-11-14T04:31:35.165Z,24.35
2022-11-14T04:34:03.044Z,29.38
2022-11-14T04:36:32.112Z,26.85
2022-11-14T04:38:59.843Z,29.52
2022-11-14T04:41:28.108Z,26.00
2022-11-14T04:43:55.866Z,30.08
2022-11-14T04:46:23.552Z,26.40
2022-11-14T04:48:51.366Z,29.13
2022-11-14T04:51:19.161Z,28.20
2022-11-14T04:53:48.203Z,24.00
2022-11-14T04:56:15.918Z,31.35
2022-11-14T04:58:43.619Z,31.58
2022-11-14T05:01:13.010Z,28.70
2022-11-14T05:03:40.785Z,29.83
2022-11-14T05:06:09.178Z,32.28
2022-11-14T05:08:36.950Z,32.40
2022-11-14T05:11:06.234Z,31.75
2022-11-14T05:13:33.974Z,27.40
2022-11-14T05:16:02.263Z,30.98
2022-11-14T05:18:30.341Z,26.52
2022-11-14T05:21:00.215Z,28.90
2022-11-14T05:23:28.606Z,30.67
2022-11-14T05:26:03.555Z,24.80
2022-11-14T05:28:33.086Z,33.90
2022-11-14T05:31:05.168Z,28.67
2022-11-14T05:33:33.649Z,24.92
2022-11-14T05:36:05.617Z,25.52
2022-11-14T05:38:33.639Z,27.80
2022-11-14T05:41:05.730Z,21.10
2022-11-14T05:43:35.154Z,23.42
2022-11-14T05:46:04.325Z,26.83
2022-11-14T05:48:33.034Z,22.48
2022-11-14T05:51:04.298Z,22.95
2022-11-14T05:53:34.147Z,28.58
2022-11-14T05:56:02.524Z,21.52
2022-11-14T05:58:31.985Z,21.60
2022-11-14T06:01:06.003Z,25.98
2022-11-14T06:03:35.352Z,21.45
2022-11-14T06:06:03.660Z,25.00
2022-11-14T06:08:32.627Z,24.80
2022-11-14T06:11:06.074Z,22.10
2022-11-14T06:13:34.573Z,24.40
2022-11-14T06:16:04.954Z,25.65
2022-11-14T06:18:35.762Z,25.08
2022-11-14T06:21:05.278Z,22.80
2022-11-14T06:23:33.135Z,19.95
2022-11-14T06:26:01.894Z,20.95
2022-11-14T06:28:30.103Z,31.02
2022-11-14T06:30:59.797Z,28.58
2022-11-14T06:33:29.675Z,25.27
2022-11-14T06:35:59.552Z,21.92
2022-11-14T06:38:27.636Z,23.40
2022-11-14T06:41:03.039Z,24.25
2022-11-14T06:43:32.942Z,26.85
2022-11-14T06:46:00.722Z,24.80
2022-11-14T06:48:30.286Z,27.75
2022-11-14T06:50:59.659Z,24.25
2022-11-14T06:53:29.995Z,26.13
2022-11-14T06:55:59.041Z,26.02
2022-11-14T06:58:28.650Z,28.02
2022-11-14T07:00:56.797Z,21.02
2022-11-14T07:03:24.653Z,30.83
2022-11-14T07:05:53.847Z,38.83
2022-11-14T07:08:21.561Z,33.88
2022-11-14T07:10:49.284Z,30.88
2022-11-14T07:13:17.003Z,33.55
2022-11-14T07:15:51.211Z,40.00
2022-11-14T07:18:18.931Z,35.25
2022-11-14T07:20:46.845Z,39.10
2022-11-14T07:23:21.462Z,35.22
2022-11-14T07:25:50.669Z,34.50
2022-11-14T07:28:18.358Z,30.48
2022-11-14T07:30:46.346Z,45.85
2022-11-14T07:33:14.068Z,40.08
2022-11-14T07:35:41.824Z,47.92
2022-11-14T07:38:09.609Z,32.33
2022-11-14T07:40:38.666Z,26.40
2022-11-14T07:43:06.365Z,28.33
2022-11-14T07:45:34.106Z,19.42
2022-11-14T07:48:03.348Z,18.35
2022-11-14T07:50:31.564Z,19.90
2022-11-14T07:52:59.254Z,15.60
2022-11-14T07:55:26.974Z,13.90
2022-11-14T07:57:56.744Z,15.35
2022-11-14T08:00:24.449Z,14.98
2022-11-14T08:02:52.204Z,16.25
2022-11-14T08:05:19.929Z,14.00
2022-11-14T08:07:47.961Z,19.65
2022-11-14T08:10:16.179Z,15.07
2022-11-14T08:12:43.943Z,14.70
2022-11-14T08:15:15.151Z,20.52
2022-11-14T08:17:42.884Z,16.65
2022-11-14T08:20:11.886Z,15.18
2022-11-14T08:22:39.603Z,15.48
2022-11-14T08:25:08.368Z,14.85
2022-11-14T08:27:36.151Z,12.55
2022-11-14T08:30:04.232Z,15.18
2022-11-14T08:32:33.316Z,12.35
2022-11-14T08:35:01.020Z,14.15
2022-11-14T08:37:28.738Z,12.02
2022-11-14T08:39:56.487Z,15.38
2022-11-14T08:42:24.243Z,17.60
2022-11-14T08:44:52.452Z,19.55
2022-11-14T08:47:20.438Z,18.75
2022-11-14T08:49:49.455Z,15.65
2022-11-14T08:52:17.244Z,14.10
2022-11-14T08:54:45.447Z,16.52
2022-11-14T08:57:15.161Z,14.85
2022-11-14T08:59:43.094Z,19.83
2022-11-14T09:02:12.122Z,16.40
2022-11-14T09:04:40.159Z,17.00
2022-11-14T09:07:09.525Z,17.85
2022-11-14T09:09:37.269Z,15.35
2022-11-14T09:12:05.529Z,14.45
2022-11-14T09:14:33.224Z,19.70
2022-11-14T09:17:05.666Z,14.93
2022-11-14T09:19:33.920Z,16.13
2022-11-14T09:22:01.758Z,15.23
2022-11-14T09:24:30.836Z,16.17
2022-11-14T09:26:58.564Z,17.30
2022-11-14T09:29:26.352Z,15.85
2022-11-14T09:31:54.984Z,17.17
2022-11-14T09:34:22.675Z,16.48
2022-11-14T09:36:50.394Z,17.58
2022-11-14T09:39:18.121Z,20.85
2022-11-14T09:41:58.777Z,17.52
2022-11-14T09:44:41.400Z,18.27
2022-11-14T09:47:16.666Z,16.95
2022-11-14T09:49:50.254Z,15.13
2022-11-14T09:52:31.625Z,17.63
2022-11-14T09:55:02.154Z,20.73
2022-11-14T09:57:31.678Z,18.92
2022-11-14T09:59:59.402Z,18.50
2022-11-14T10:02:44.109Z,16.23
2022-11-14T10:05:25.648Z,20.75
2022-11-14T10:08:10.476Z,18.30
2022-11-14T10:10:51.995Z,15.80
2022-11-14T10:13:43.796Z,16.92
2022-11-14T10:16:19.618Z,19.45
2022-11-14T10:19:10.910Z,16.98
2022-11-14T10:21:53.055Z,15.02
2022-11-14T10:24:48.653Z,16.38
2022-11-14T10:27:20.654Z,14.10
2022-11-14T10:30:03.790Z,18.05
2022-11-14T10:32:58.785Z,17.23
2022-11-14T10:35:34.982Z,10.90
2022-11-14T10:38:12.007Z,13.35
2022-11-14T10:40:43.113Z,10.60
2022-11-14T10:43:21.810Z,9.70
2022-11-14T10:45:55.145Z,8.30
2022-11-14T10:48:32.202Z,10.57
2022-11-14T10:51:02.751Z,7.40
2022-11-14T10:53:42.647Z,6.47
2022-11-14T10:56:12.543Z,7.00
2022-11-14T10:58:48.308Z,5.65
2022-11-14T11:01:39.257Z,7.53
2022-11-14T11:04:15.603Z,4.30
2022-11-14T11:06:43.587Z,17.10
2022-11-14T11:09:34.345Z,4.57
2022-11-14T11:12:04.189Z,4.05
2022-11-14T11:14:32.813Z,5.70
2022-11-14T11:17:22.834Z,6.03
2022-11-14T11:19:50.983Z,4.68
2022-11-14T11:22:28.661Z,5.93
2022-11-14T11:24:56.868Z,4.10
2022-11-14T11:27:26.721Z,4.88
2022-11-14T11:30:06.974Z,3.70
2022-11-14T11:32:36.282Z,4.60
2022-11-14T11:35:10.491Z,5.38
2022-11-14T11:37:43.108Z,5.13
2022-11-14T11:40:17.857Z,4.35
2022-11-14T11:45:42.152Z,4.97
2022-11-14T11:48:18.212Z,7.82
2022-11-14T11:53:19.935Z,4.68
2022-11-14T11:55:49.390Z,4.57
2022-11-14T11:58:23.487Z,3.03
2022-11-14T12:00:55.387Z,5.47
2022-11-14T12:03:26.166Z,3.38
2022-11-14T12:06:03.785Z,3.38
2022-11-14T12:08:38.807Z,4.20
2022-11-14T12:11:13.101Z,3.40
2022-11-14T12:14:23.971Z,3.00
2022-11-14T12:17:09.312Z,4.53
2022-11-14T12:19:58.822Z,3.50
2022-11-14T12:22:57.281Z,4.95
2022-11-14T12:25:45.987Z,2.60
2022-11-14T12:28:31.287Z,4.03
2022-11-14T12:31:02.467Z,4.55
2022-11-14T12:33:33.693Z,3.45
2022-11-14T12:36:04.731Z,3.78
2022-11-14T12:38:41.543Z,3.22
2022-11-14T12:41:10.680Z,3.38
2022-11-14T12:43:41.548Z,3.08
2022-11-14T12:46:11.512Z,11.75
2022-11-14T12:48:40.616Z,9.45
2022-11-14T12:51:49.559Z,8.35
2022-11-14T12:54:45.657Z,9.75
2022-11-14T12:57:44.572Z,14.67
2022-11-14T13:00:13.238Z,9.70
2022-11-14T13:03:06.069Z,7.13
2022-11-14T13:05:53.744Z,8.45
2022-11-14T13:08:44.439Z,7.35
2022-11-14T13:11:55.048Z,7.45
2022-11-14T13:14:40.739Z,9.10
2022-11-14T13:17:41.500Z,10.00
2022-11-14T13:20:50.225Z,10.05
2022-11-14T13:23:56.753Z,10.30
2022-11-14T13:26:52.489Z,8.90
2022-11-14T13:30:00.062Z,9.85
2022-11-14T13:33:07.346Z,11.27
2022-11-14T13:35:46.871Z,11.43
2022-11-14T13:38:44.058Z,10.85
2022-11-14T13:41:37.231Z,9.40
2022-11-14T13:44:42.248Z,13.95
2022-11-14T13:47:26.573Z,16.90
2022-11-14T13:50:00.902Z,17.05
2022-11-14T13:52:32.179Z,16.55
2022-11-14T13:55:00.943Z,13.43
2022-11-14T13:57:42.159Z,17.30
2022-11-14T14:00:18.451Z,13.75
2022-11-14T14:03:02.025Z,19.45
2022-11-14T14:05:39.182Z,13.20
2022-11-14T14:08:17.794Z,14.68
2022-11-14T14:10:56.834Z,14.50
2022-11-14T14:13:40.237Z,9.80
2022-11-14T14:16:15.857Z,10.93
2022-11-14T14:19:00.254Z,13.93
2022-11-14T14:21:41.239Z,11.73
2022-11-14T14:24:20.229Z,17.13
2022-11-14T14:27:01.554Z,13.55
2022-11-14T14:29:39.170Z,18.15
2022-11-14T14:32:13.871Z,19.33
2022-11-14T14:34:42.336Z,16.83
2022-11-14T14:37:19.514Z,15.07
2022-11-14T14:40:01.365Z,19.48
2022-11-14T14:42:39.813Z,12.30
2022-11-14T14:45:16.236Z,12.07
2022-11-14T14:47:46.861Z,10.75
2022-11-14T14:50:18.517Z,10.07
2022-11-14T14:52:46.429Z,13.32
2022-11-14T14:55:22.404Z,11.98
2022-11-14T14:57:50.229Z,15.30
2022-11-14T15:00:25.764Z,14.02
2022-11-14T15:02:55.938Z,11.75
2022-11-14T15:05:24.673Z,10.82
2022-11-14T15:07:54.465Z,12.95
2022-11-14T15:10:24.775Z,14.73
2022-11-14T15:12:53.907Z,13.45
2022-11-14T15:15:25.578Z,10.98
2022-11-14T15:17:55.151Z,13.68
2022-11-14T15:20:24.439Z,12.75
2022-11-14T15:23:06.989Z,10.60
2022-11-14T15:25:35.123Z,9.70
2022-11-14T15:28:03.078Z,12.65
2022-11-14T15:30:34.701Z,9.80
2022-11-14T15:33:04.813Z,9.55
2022-11-14T15:35:34.498Z,11.07
2022-11-14T15:38:36.680Z,7.68
2022-11-14T15:41:20.101Z,9.45
2022-11-14T15:43:50.319Z,8.75
2022-11-14T15:46:39.499Z,8.50
2022-11-14T15:49:17.950Z,12.48
2022-11-14T15:51:48.156Z,20.58
2022-11-14T15:54:28.050Z,14.13
2022-11-14T15:56:57.621Z,8.93
2022-11-14T15:59:25.837Z,10.48
2022-11-14T16:01:58.625Z,9.82
2022-11-14T16:04:30.339Z,8.82
2022-11-14T16:06:58.097Z,9.55
2022-11-14T16:09:26.220Z,11.57
2022-11-14T16:11:54.150Z,9.80
2022-11-14T16:14:21.899Z,8.55
2022-11-14T16:16:49.657Z,9.25
2022-11-14T16:19:18.791Z,7.13
2022-11-14T16:21:46.471Z,15.02
2022-11-14T16:24:19.904Z,9.10
2022-11-14T16:26:48.537Z,10.75
2022-11-14T16:29:16.762Z,10.65
2022-11-14T16:31:44.793Z,12.95
2022-11-14T16:34:19.494Z,11.00
2022-11-14T16:36:48.685Z,15.80
2022-11-14T16:39:16.551Z,14.02
2022-11-14T16:41:44.595Z,13.73
2022-11-14T16:44:17.222Z,13.65
2022-11-14T16:46:45.551Z,12.35
2022-11-14T16:49:15.286Z,8.95
2022-11-14T16:51:48.314Z,11.68
2022-11-14T16:54:17.999Z,9.80
2022-11-14T16:56:46.002Z,10.55
2022-11-14T16:59:13.977Z,12.25
2022-11-14T17:01:42.013Z,8.35
2022-11-14T17:04:10.094Z,8.10
2022-11-14T17:06:37.830Z,11.10
2022-11-14T17:09:06.910Z,7.65
2022-11-14T17:11:34.630Z,6.25
2022-11-14T17:14:02.491Z,10.80
2022-11-14T17:16:30.622Z,11.50
2022-11-14T17:18:58.479Z,16.67
2022-11-14T17:21:26.357Z,12.13
2022-11-14T17:24:00.253Z,7.57
2022-11-14T17:26:29.927Z,9.00
2022-11-14T17:28:57.901Z,5.68
2022-11-14T17:31:25.662Z,6.35
2022-11-14T17:33:54.500Z,10.25
2022-11-14T17:36:23.287Z,6.53
2022-11-14T17:38:51.503Z,6.90
2022-11-14T17:41:19.634Z,8.68
2022-11-14T17:43:52.515Z,9.60
2022-11-14T17:46:20.862Z,10.23
2022-11-14T17:48:48.995Z,6.43
2022-11-14T17:51:17.599Z,7.60
2022-11-14T17:53:45.639Z,6.32
2022-11-14T17:56:15.358Z,8.68
2022-11-14T17:58:43.335Z,15.52
2022-11-14T18:01:13.709Z,9.10
2022-11-14T18:03:41.910Z,6.30
2022-11-14T18:06:11.208Z,6.25
2022-11-14T18:08:39.448Z,9.52
2022-11-14T18:11:09.821Z,6.82
2022-11-14T18:13:37.743Z,6.85
2022-11-14T18:16:08.610Z,7.45
2022-11-14T18:18:38.299Z,5.15
2022-11-14T18:21:10.570Z,5.85
2022-11-14T18:23:39.535Z,6.35
2022-11-14T18:26:11.615Z,8.70
2022-11-14T18:28:39.853Z,9.77
2022-11-14T18:31:10.656Z,8.90
2022-11-14T18:33:40.824Z,8.07
2022-11-14T18:36:11.698Z,11.23
2022-11-14T18:38:39.483Z,13.10
2022-11-14T18:41:09.347Z,13.40
2022-11-14T18:43:37.728Z,8.75
2022-11-14T18:46:07.467Z,10.73
2022-11-14T18:48:35.408Z,11.23
2022-11-14T18:51:05.591Z,10.50
2022-11-14T18:53:33.804Z,11.82
2022-11-14T18:56:05.295Z,21.15
2022-11-14T18:58:33.595Z,13.85
2022-11-14T19:01:10.299Z,12.40
2022-11-14T19:03:38.317Z,13.55
2022-11-14T19:06:09.444Z,13.00
2022-11-14T19:08:37.230Z,10.23
2022-11-14T19:11:06.650Z,12.10
2022-11-14T19:13:34.987Z,11.18
2022-11-14T19:16:03.683Z,8.80
2022-11-14T19:18:32.264Z,7.47
2022-11-14T19:21:02.186Z,10.23
2022-11-14T19:23:31.704Z,8.10
2022-11-14T19:26:01.176Z,9.13
2022-11-14T19:28:30.151Z,7.28
2022-11-14T19:31:02.963Z,9.88
2022-11-14T19:33:31.175Z,7.20
2022-11-14T19:35:59.429Z,15.23
2022-11-14T19:38:27.189Z,7.93
2022-11-14T19:41:00.825Z,13.48
2022-11-14T19:43:31.542Z,7.75
2022-11-14T19:46:03.017Z,12.55
2022-11-14T19:48:31.014Z,12.82
2022-11-14T19:51:03.042Z,8.90
2022-11-14T19:53:32.135Z,11.65
2022-11-14T19:56:02.793Z,8.40
2022-11-14T19:58:30.636Z,9.30
2022-11-14T20:01:03.770Z,12.98
2022-11-14T20:03:32.276Z,10.70
2022-11-14T20:06:00.467Z,10.95
2022-11-14T20:08:28.894Z,8.80
2022-11-14T20:10:58.496Z,7.57
2022-11-14T20:13:30.780Z,6.60
2022-11-14T20:15:59.792Z,8.60
2022-11-14T20:18:29.613Z,10.30
2022-11-14T20:20:58.903Z,11.85
2022-11-14T20:23:27.476Z,8.10
2022-11-14T20:25:55.635Z,7.15
2022-11-14T20:28:23.849Z,7.03
2022-11-14T20:30:53.275Z,11.70
2022-11-14T20:33:21.187Z,9.18
2022-11-14T20:35:49.098Z,10.93
2022-11-14T20:38:17.145Z,8.82
2022-11-14T20:40:45.286Z,9.35
2022-11-14T20:43:13.175Z,8.73
2022-11-14T20:45:41.006Z,9.70
2022-11-14T20:48:10.222Z,9.23
2022-11-14T20:50:38.039Z,9.32
2022-11-14T20:53:05.921Z,10.85
2022-11-14T20:55:34.397Z,12.02
2022-11-14T20:58:02.266Z,13.40
2022-11-14T21:00:30.200Z,9.20
2022-11-14T21:02:58.060Z,9.20
2022-11-14T21:05:27.231Z,13.50
2022-11-14T21:07:54.951Z,19.52
2022-11-14T21:10:40.226Z,10.63
2022-11-14T21:13:25.951Z,8.20
2022-11-14T21:15:56.288Z,11.37
2022-11-14T21:18:24.072Z,9.50
2022-11-14T21:21:01.052Z,10.13
2022-11-14T21:23:29.270Z,8.52
2022-11-14T21:26:08.504Z,9.65
2022-11-14T21:28:39.098Z,9.23
2022-11-14T21:31:15.193Z,8.52
2022-11-14T21:36:43.105Z,11.80
2022-11-14T21:39:01.515Z,9.05
2022-11-14T21:41:30.638Z,9.95
2022-11-14T21:44:00.534Z,13.85
2022-11-14T21:46:29.279Z,9.27
2022-11-14T21:48:58.182Z,11.70
2022-11-14T21:51:29.026Z,9.43
2022-11-14T21:53:58.646Z,8.57
2022-11-14T21:56:28.058Z,8.45
2022-11-14T21:59:12.459Z,13.65
2022-11-14T22:01:58.301Z,13.32
2022-11-14T22:04:26.183Z,7.50
2022-11-14T22:06:55.920Z,8.48
2022-11-14T22:09:23.788Z,14.82
2022-11-14T22:11:51.582Z,11.25
2022-11-14T22:14:19.297Z,11.65
2022-11-14T22:16:47.002Z,11.18
2022-11-14T22:19:14.924Z,14.43
2022-11-14T22:21:42.610Z,9.48
2022-11-14T22:24:11.666Z,10.23
2022-11-14T22:26:39.950Z,11.25
2022-11-14T22:29:08.050Z,9.38
2022-11-14T22:31:35.864Z,8.52
2022-11-14T22:34:03.807Z,15.73
2022-11-14T22:36:31.587Z,8.00
2022-11-14T22:38:59.340Z,9.52
2022-11-14T22:41:32.634Z,8.65
2022-11-14T22:44:01.364Z,9.75
2022-11-14T22:46:29.667Z,8.82
2022-11-14T22:48:58.100Z,10.63
2022-11-14T22:51:27.555Z,12.85
2022-11-14T22:53:56.817Z,7.80
2022-11-14T22:56:26.214Z,13.93
2022-11-14T22:58:55.787Z,12.30
2022-11-14T23:01:25.648Z,8.52
2022-11-14T23:03:57.474Z,7.18
2022-11-14T23:06:25.754Z,6.25
2022-11-14T23:08:54.583Z,9.80
2022-11-14T23:11:24.379Z,10.95
2022-11-14T23:13:54.323Z,9.25
2022-11-14T23:16:25.222Z,10.55
2022-11-14T23:18:54.733Z,8.18
2022-11-14T23:21:25.028Z,12.48
2022-11-14T23:23:56.389Z,18.88
2022-11-14T23:26:25.458Z,10.48
2022-11-14T23:28:53.671Z,9.52
2022-11-14T23:31:23.374Z,7.82
2022-11-14T23:33:52.923Z,9.18
2022-11-14T23:36:21.110Z,8.10
2022-11-14T23:38:49.076Z,11.32
2022-11-14T23:41:18.837Z,8.68
2022-11-14T23:43:46.988Z,7.65
2022-11-14T23:46:15.292Z,7.25
2022-11-14T23:48:44.639Z,8.38
2022-11-14T23:51:13.571Z,7.50
2022-11-14T23:53:41.438Z,10.93
2022-11-14T23:56:13.542Z,7.93
2022-11-14T23:58:41.671Z,10.45
